sensor_id;sensor_type;location;lat;lon;timestamp;pressure;altitude;pressure_sealevel;temperature;humidity
73103;BME280;61294;65.988;29.172;2023-03-23T00:04:51;96336.09;;;-8.72;89.03
73103;BME280;61294;65.988;29.172;2023-03-23T00:07:19;96341.38;;;-8.68;89.92
73103;BME280;61294;65.988;29.172;2023-03-23T00:09:50;96322.41;;;-8.76;90.58
73103;BME280;61294;65.988;29.172;2023-03-23T00:12:23;96335.91;;;-8.78;91.51
73103;BME280;61294;65.988;29.172;2023-03-23T00:15:06;96333.41;;;-8.77;92.89
73103;BME280;61294;65.988;29.172;2023-03-23T00:17:34;96331.47;;;-8.84;93.67
73103;BME280;61294;65.988;29.172;2023-03-23T00:20:00;96332.03;;;-8.93;94.69
73103;BME280;61294;65.988;29.172;2023-03-23T00:22:29;96327.66;;;-8.97;95.17
73103;BME280;61294;65.988;29.172;2023-03-23T00:24:55;96318.16;;;-9.01;95.81
73103;BME280;61294;65.988;29.172;2023-03-23T00:27:22;96290.56;;;-9.13;96.34
73103;BME280;61294;65.988;29.172;2023-03-23T00:29:51;96326.09;;;-8.93;96.58
73103;BME280;61294;65.988;29.172;2023-03-23T00:32:23;96287.09;;;-9.15;97.08
73103;BME280;61294;65.988;29.172;2023-03-23T00:34:53;96286.09;;;-9.20;97.98
73103;BME280;61294;65.988;29.172;2023-03-23T00:37:19;96329.31;;;-8.99;98.50
73103;BME280;61294;65.988;29.172;2023-03-23T00:39:45;96329.16;;;-9.02;98.63
73103;BME280;61294;65.988;29.172;2023-03-23T00:42:15;96329.13;;;-9.04;99.23
73103;BME280;61294;65.988;29.172;2023-03-23T00:44:42;96288.53;;;-9.23;99.59
73103;BME280;61294;65.988;29.172;2023-03-23T00:47:10;96239.78;;;-9.57;100.00
73103;BME280;61294;65.988;29.172;2023-03-23T00:49:36;96279.31;;;-9.44;100.00
73103;BME280;61294;65.988;29.172;2023-03-23T00:52:03;96333.06;;;-9.13;100.00
73103;BME280;61294;65.988;29.172;2023-03-23T00:54:32;96314.94;;;-9.21;100.00
73103;BME280;61294;65.988;29.172;2023-03-23T00:57:00;96288.91;;;-9.37;100.00
73103;BME280;61294;65.988;29.172;2023-03-23T00:59:27;96330.38;;;-9.16;100.00
73103;BME280;61294;65.988;29.172;2023-03-23T01:01:53;96327.69;;;-9.21;100.00
73103;BME280;61294;65.988;29.172;2023-03-23T01:04:19;96329.16;;;-9.28;100.00
73103;BME280;61294;65.988;29.172;2023-03-23T01:06:48;96312.28;;;-9.24;100.00
73103;BME280;61294;65.988;29.172;2023-03-23T01:09:17;96333.59;;;-9.22;100.00
73103;BME280;61294;65.988;29.172;2023-03-23T01:11:45;96281.75;;;-9.47;100.00
73103;BME280;61294;65.988;29.172;2023-03-23T01:14:14;96328.19;;;-9.31;100.00
73103;BME280;61294;65.988;29.172;2023-03-23T01:16:40;96273.81;;;-9.56;100.00
73103;BME280;61294;65.988;29.172;2023-03-23T01:19:05;96315.59;;;-9.27;100.00
73103;BME280;61294;65.988;29.172;2023-03-23T01:21:31;96311.25;;;-9.29;100.00
73103;BME280;61294;65.988;29.172;2023-03-23T01:23:57;96299.09;;;-9.37;100.00
73103;BME280;61294;65.988;29.172;2023-03-23T01:26:26;96329.66;;;-9.38;100.00
73103;BME280;61294;65.988;29.172;2023-03-23T01:28:52;96327.84;;;-9.41;100.00
73103;BME280;61294;65.988;29.172;2023-03-23T01:31:21;96234.75;;;-9.79;100.00
73103;BME280;61294;65.988;29.172;2023-03-23T01:33:47;96303.31;;;-9.39;100.00
73103;BME280;61294;65.988;29.172;2023-03-23T01:36:19;96309.06;;;-9.44;100.00
73103;BME280;61294;65.988;29.172;2023-03-23T01:38:47;96308.16;;;-9.45;100.00
73103;BME280;61294;65.988;29.172;2023-03-23T01:41:14;96303.81;;;-9.49;100.00
73103;BME280;61294;65.988;29.172;2023-03-23T01:46:41;96282.28;;;-9.57;100.00
73103;BME280;61294;65.988;29.172;2023-03-23T01:49:08;96264.19;;;-9.63;100.00
73103;BME280;61294;65.988;29.172;2023-03-23T01:51:43;96273.56;;;-9.62;100.00
73103;BME280;61294;65.988;29.172;2023-03-23T01:54:13;96234.75;;;-9.79;100.00
73103;BME280;61294;65.988;29.172;2023-03-23T01:57:10;96237.69;;;-9.68;100.00
73103;BME280;61294;65.988;29.172;2023-03-23T01:59:35;96215.34;;;-10.01;100.00
73103;BME280;61294;65.988;29.172;2023-03-23T02:02:02;96281.22;;;-9.62;100.00
73103;BME280;61294;65.988;29.172;2023-03-23T02:04:28;96275.16;;;-9.66;100.00
73103;BME280;61294;65.988;29.172;2023-03-23T02:06:56;96271.44;;;-9.76;100.00
73103;BME280;61294;65.988;29.172;2023-03-23T02:09:24;96274.06;;;-9.73;100.00
73103;BME280;61294;65.988;29.172;2023-03-23T02:11:51;96261.06;;;-9.80;100.00
73103;BME280;61294;65.988;29.172;2023-03-23T02:14:18;96273.63;;;-9.85;100.00
73103;BME280;61294;65.988;29.172;2023-03-23T02:16:52;96263.34;;;-9.88;100.00
73103;BME280;61294;65.988;29.172;2023-03-23T02:19:31;96266.81;;;-9.86;100.00
73103;BME280;61294;65.988;29.172;2023-03-23T02:24:55;96263.28;;;-9.90;100.00
73103;BME280;61294;65.988;29.172;2023-03-23T02:33:34;96261.28;;;-9.98;100.00
73103;BME280;61294;65.988;29.172;2023-03-23T02:41:24;96261.81;;;-10.07;100.00
73103;BME280;61294;65.988;29.172;2023-03-23T02:43:52;96256.72;;;-10.07;100.00
73103;BME280;61294;65.988;29.172;2023-03-23T02:46:19;96268.50;;;-10.09;100.00
73103;BME280;61294;65.988;29.172;2023-03-23T02:48:47;96247.81;;;-10.18;100.00
73103;BME280;61294;65.988;29.172;2023-03-23T02:51:18;96247.22;;;-10.11;100.00
73103;BME280;61294;65.988;29.172;2023-03-23T02:53:45;96255.72;;;-10.11;100.00
73103;BME280;61294;65.988;29.172;2023-03-23T02:56:13;96232.75;;;-10.12;100.00
73103;BME280;61294;65.988;29.172;2023-03-23T02:58:40;96244.53;;;-10.16;100.00
73103;BME280;61294;65.988;29.172;2023-03-23T03:03:50;96227.97;;;-10.27;100.00
73103;BME280;61294;65.988;29.172;2023-03-23T03:08:52;96218.44;;;-10.33;100.00
73103;BME280;61294;65.988;29.172;2023-03-23T03:11:21;96228.09;;;-10.24;100.00
73103;BME280;61294;65.988;29.172;2023-03-23T03:14:05;96233.72;;;-10.33;100.00
73103;BME280;61294;65.988;29.172;2023-03-23T03:19:19;96227.84;;;-10.30;100.00
73103;BME280;61294;65.988;29.172;2023-03-23T03:21:48;96170.41;;;-10.70;100.00
73103;BME280;61294;65.988;29.172;2023-03-23T03:24:17;96201.34;;;-10.37;100.00
73103;BME280;61294;65.988;29.172;2023-03-23T03:26:46;96216.72;;;-10.34;100.00
73103;BME280;61294;65.988;29.172;2023-03-23T03:29:22;96204.53;;;-10.43;100.00
73103;BME280;61294;65.988;29.172;2023-03-23T03:31:51;96226.69;;;-10.40;100.00
73103;BME280;61294;65.988;29.172;2023-03-23T03:34:17;96221.47;;;-10.43;100.00
73103;BME280;61294;65.988;29.172;2023-03-23T03:36:46;96217.16;;;-10.46;100.00
73103;BME280;61294;65.988;29.172;2023-03-23T03:39:14;96206.72;;;-10.52;100.00
73103;BME280;61294;65.988;29.172;2023-03-23T03:41:43;96142.22;;;-10.99;100.00
73103;BME280;61294;65.988;29.172;2023-03-23T03:44:09;96126.34;;;-10.94;100.00
73103;BME280;61294;65.988;29.172;2023-03-23T03:46:36;96169.09;;;-10.83;100.00
73103;BME280;61294;65.988;29.172;2023-03-23T03:49:05;96124.09;;;-11.08;100.00
73103;BME280;61294;65.988;29.172;2023-03-23T03:51:31;96157.31;;;-10.81;100.00
73103;BME280;61294;65.988;29.172;2023-03-23T03:53:57;96134.66;;;-10.98;100.00
73103;BME280;61294;65.988;29.172;2023-03-23T03:56:23;96169.34;;;-10.77;100.00
73103;BME280;61294;65.988;29.172;2023-03-23T03:58:50;96210.38;;;-10.68;99.84
73103;BME280;61294;65.988;29.172;2023-03-23T04:01:17;96173.38;;;-10.82;99.47
73103;BME280;61294;65.988;29.172;2023-03-23T04:03:44;96207.03;;;-10.67;99.71
73103;BME280;61294;65.988;29.172;2023-03-23T04:06:11;96182.66;;;-10.84;99.58
73103;BME280;61294;65.988;29.172;2023-03-23T04:08:38;96154.94;;;-10.99;100.00
73103;BME280;61294;65.988;29.172;2023-03-23T04:11:04;96163.84;;;-10.88;100.00
73103;BME280;61294;65.988;29.172;2023-03-23T04:13:31;96199.94;;;-10.76;99.96
73103;BME280;61294;65.988;29.172;2023-03-23T04:15:57;96199.09;;;-10.74;100.00
73103;BME280;61294;65.988;29.172;2023-03-23T04:18:22;96200.72;;;-10.77;100.00
73103;BME280;61294;65.988;29.172;2023-03-23T04:20:49;96204.19;;;-10.74;100.00
73103;BME280;61294;65.988;29.172;2023-03-23T04:23:17;96202.34;;;-10.79;100.00
73103;BME280;61294;65.988;29.172;2023-03-23T04:25:47;96201.84;;;-10.70;100.00
73103;BME280;61294;65.988;29.172;2023-03-23T04:28:14;96191.72;;;-10.68;100.00
73103;BME280;61294;65.988;29.172;2023-03-23T04:30:42;96194.31;;;-10.67;100.00
73103;BME280;61294;65.988;29.172;2023-03-23T04:33:09;96110.38;;;-11.12;99.89
73103;BME280;61294;65.988;29.172;2023-03-23T04:35:43;96183.19;;;-10.69;99.84
73103;BME280;61294;65.988;29.172;2023-03-23T04:38:11;96091.84;;;-11.09;99.66
73103;BME280;61294;65.988;29.172;2023-03-23T04:40:38;96173.66;;;-10.74;99.92
73103;BME280;61294;65.988;29.172;2023-03-23T04:43:04;96177.47;;;-10.63;100.00
73103;BME280;61294;65.988;29.172;2023-03-23T04:45:32;96139.31;;;-10.86;99.54
73103;BME280;61294;65.988;29.172;2023-03-23T04:47:59;96184.25;;;-10.64;99.89
73103;BME280;61294;65.988;29.172;2023-03-23T04:50:30;96088.50;;;-11.08;99.80
73103;BME280;61294;65.988;29.172;2023-03-23T04:53:00;96178.34;;;-10.63;99.16
73103;BME280;61294;65.988;29.172;2023-03-23T04:55:30;96147.69;;;-10.90;98.76
73103;BME280;61294;65.988;29.172;2023-03-23T04:57:57;96185.94;;;-10.64;98.85
73103;BME280;61294;65.988;29.172;2023-03-23T05:00:26;96175.81;;;-10.63;98.54
73103;BME280;61294;65.988;29.172;2023-03-23T05:02:53;96170.31;;;-10.73;100.00
73103;BME280;61294;65.988;29.172;2023-03-23T05:05:21;96156.44;;;-10.82;100.00
73103;BME280;61294;65.988;29.172;2023-03-23T05:07:48;96178.25;;;-10.66;100.00
73103;BME280;61294;65.988;29.172;2023-03-23T05:10:14;96170.31;;;-10.73;99.64
73103;BME280;61294;65.988;29.172;2023-03-23T05:12:41;96129.28;;;-10.83;99.55
73103;BME280;61294;65.988;29.172;2023-03-23T05:15:08;96119.75;;;-10.88;98.88
73103;BME280;61294;65.988;29.172;2023-03-23T05:17:35;96160.19;;;-10.72;99.08
73103;BME280;61294;65.988;29.172;2023-03-23T05:20:02;96169.41;;;-10.76;98.22
73103;BME280;61294;65.988;29.172;2023-03-23T05:22:35;96086.19;;;-11.02;97.86
73103;BME280;61294;65.988;29.172;2023-03-23T05:25:02;96156.41;;;-10.59;97.78
73103;BME280;61294;65.988;29.172;2023-03-23T05:27:28;96154.78;;;-10.59;97.63
73103;BME280;61294;65.988;29.172;2023-03-23T05:29:56;96153.03;;;-10.60;97.17
73103;BME280;61294;65.988;29.172;2023-03-23T05:32:24;96152.09;;;-10.62;98.00
73103;BME280;61294;65.988;29.172;2023-03-23T05:35:01;96152.28;;;-10.57;98.20
73103;BME280;61294;65.988;29.172;2023-03-23T05:37:29;96158.50;;;-10.49;98.19
73103;BME280;61294;65.988;29.172;2023-03-23T05:39:58;96141.22;;;-10.57;96.84
73103;BME280;61294;65.988;29.172;2023-03-23T05:42:27;96153.13;;;-10.56;96.87
73103;BME280;61294;65.988;29.172;2023-03-23T05:44:52;96089.59;;;-10.78;97.28
73103;BME280;61294;65.988;29.172;2023-03-23T05:47:19;96111.31;;;-10.63;96.61
73103;BME280;61294;65.988;29.172;2023-03-23T05:49:44;96146.06;;;-10.41;96.73
73103;BME280;61294;65.988;29.172;2023-03-23T05:52:10;96106.63;;;-10.77;95.98
73103;BME280;61294;65.988;29.172;2023-03-23T05:54:36;96138.28;;;-10.46;95.75
73103;BME280;61294;65.988;29.172;2023-03-23T05:57:02;96145.84;;;-10.47;95.84
73103;BME280;61294;65.988;29.172;2023-03-23T05:59:28;96149.34;;;-10.44;95.86
73103;BME280;61294;65.988;29.172;2023-03-23T06:01:54;96146.22;;;-10.36;96.05
73103;BME280;61294;65.988;29.172;2023-03-23T06:04:20;96092.44;;;-10.70;95.05
73103;BME280;61294;65.988;29.172;2023-03-23T06:06:50;96159.75;;;-10.37;94.26
73103;BME280;61294;65.988;29.172;2023-03-23T06:09:17;96141.63;;;-10.47;93.12
73103;BME280;61294;65.988;29.172;2023-03-23T06:11:44;96146.88;;;-10.42;93.13
73103;BME280;61294;65.988;29.172;2023-03-23T06:14:09;96130.69;;;-10.44;92.91
73103;BME280;61294;65.988;29.172;2023-03-23T06:16:35;96136.56;;;-10.45;92.99
73103;BME280;61294;65.988;29.172;2023-03-23T06:19:01;96139.94;;;-10.46;92.81
73103;BME280;61294;65.988;29.172;2023-03-23T06:21:30;96144.09;;;-10.48;92.10
73103;BME280;61294;65.988;29.172;2023-03-23T06:23:57;96134.09;;;-10.44;92.21
73103;BME280;61294;65.988;29.172;2023-03-23T06:26:30;96043.22;;;-10.95;91.96
73103;BME280;61294;65.988;29.172;2023-03-23T06:28:56;96136.78;;;-10.39;91.73
73103;BME280;61294;65.988;29.172;2023-03-23T06:31:23;96144.56;;;-10.36;92.25
73103;BME280;61294;65.988;29.172;2023-03-23T06:33:49;96134.28;;;-10.37;91.95
73103;BME280;61294;65.988;29.172;2023-03-23T06:36:15;96069.59;;;-10.68;91.61
73103;BME280;61294;65.988;29.172;2023-03-23T06:38:42;96130.06;;;-10.13;92.18
73103;BME280;61294;65.988;29.172;2023-03-23T06:41:08;96101.94;;;-10.42;91.29
73103;BME280;61294;65.988;29.172;2023-03-23T06:43:34;96139.16;;;-10.19;91.10
73103;BME280;61294;65.988;29.172;2023-03-23T06:46:03;96080.94;;;-10.36;90.46
73103;BME280;61294;65.988;29.172;2023-03-23T06:48:29;96129.41;;;-10.07;90.63
73103;BME280;61294;65.988;29.172;2023-03-23T06:50:55;96056.34;;;-10.35;90.25
73103;BME280;61294;65.988;29.172;2023-03-23T06:53:21;96064.81;;;-10.35;89.77
73103;BME280;61294;65.988;29.172;2023-03-23T06:55:46;96057.19;;;-10.33;89.46
73103;BME280;61294;65.988;29.172;2023-03-23T06:58:12;96136.06;;;-9.85;89.58
73103;BME280;61294;65.988;29.172;2023-03-23T07:00:39;96133.84;;;-9.76;89.77
73103;BME280;61294;65.988;29.172;2023-03-23T07:03:06;96106.44;;;-9.83;88.99
73103;BME280;61294;65.988;29.172;2023-03-23T07:05:33;96134.69;;;-9.75;88.77
73103;BME280;61294;65.988;29.172;2023-03-23T07:08:00;96111.25;;;-9.91;88.39
73103;BME280;61294;65.988;29.172;2023-03-23T07:10:26;96093.28;;;-9.95;88.23
73103;BME280;61294;65.988;29.172;2023-03-23T07:12:52;96062.63;;;-10.24;88.16
73103;BME280;61294;65.988;29.172;2023-03-23T07:15:18;96135.25;;;-9.84;88.04
73103;BME280;61294;65.988;29.172;2023-03-23T07:17:44;96125.06;;;-9.84;87.88
73103;BME280;61294;65.988;29.172;2023-03-23T07:20:11;96133.91;;;-9.74;87.37
73103;BME280;61294;65.988;29.172;2023-03-23T07:22:37;96145.22;;;-9.66;87.49
73103;BME280;61294;65.988;29.172;2023-03-23T07:25:04;96136.72;;;-9.65;88.71
73103;BME280;61294;65.988;29.172;2023-03-23T07:27:30;96072.53;;;-10.06;87.75
73103;BME280;61294;65.988;29.172;2023-03-23T07:29:56;96132.09;;;-9.77;87.31
73103;BME280;61294;65.988;29.172;2023-03-23T07:32:23;96077.38;;;-9.88;87.80
73103;BME280;61294;65.988;29.172;2023-03-23T07:34:49;96130.06;;;-9.61;87.39
73103;BME280;61294;65.988;29.172;2023-03-23T07:37:15;96128.66;;;-9.53;87.04
73103;BME280;61294;65.988;29.172;2023-03-23T07:39:42;96119.97;;;-9.58;86.14
73103;BME280;61294;65.988;29.172;2023-03-23T07:42:08;96118.13;;;-9.62;85.48
73103;BME280;61294;65.988;29.172;2023-03-23T07:44:34;96067.75;;;-9.97;84.76
73103;BME280;61294;65.988;29.172;2023-03-23T07:46:59;96060.97;;;-9.96;84.54
73103;BME280;61294;65.988;29.172;2023-03-23T07:49:25;96022.41;;;-10.09;85.31
73103;BME280;61294;65.988;29.172;2023-03-23T07:51:52;96031.34;;;-9.94;85.54
73103;BME280;61294;65.988;29.172;2023-03-23T07:54:17;96127.84;;;-9.50;84.61
73103;BME280;61294;65.988;29.172;2023-03-23T07:56:44;96126.84;;;-9.56;85.11
73103;BME280;61294;65.988;29.172;2023-03-23T07:59:10;96107.59;;;-9.47;85.82
73103;BME280;61294;65.988;29.172;2023-03-23T08:01:38;96051.59;;;-9.72;84.34
73103;BME280;61294;65.988;29.172;2023-03-23T08:04:04;96099.41;;;-9.37;83.92
73103;BME280;61294;65.988;29.172;2023-03-23T08:06:32;96128.38;;;-9.33;83.03
73103;BME280;61294;65.988;29.172;2023-03-23T08:08:59;96122.13;;;-9.17;82.80
73103;BME280;61294;65.988;29.172;2023-03-23T08:11:26;96115.03;;;-8.99;83.20
73103;BME280;61294;65.988;29.172;2023-03-23T08:13:52;96129.34;;;-9.03;82.87
73103;BME280;61294;65.988;29.172;2023-03-23T08:16:18;96131.63;;;-9.12;82.08
73103;BME280;61294;65.988;29.172;2023-03-23T08:18:45;96122.81;;;-8.94;83.34
73103;BME280;61294;65.988;29.172;2023-03-23T08:21:12;96098.47;;;-9.12;81.81
73103;BME280;61294;65.988;29.172;2023-03-23T08:23:38;96124.06;;;-9.09;81.98
73103;BME280;61294;65.988;29.172;2023-03-23T08:26:08;96123.56;;;-8.97;82.34
73103;BME280;61294;65.988;29.172;2023-03-23T08:28:35;96125.53;;;-8.88;80.83
73103;BME280;61294;65.988;29.172;2023-03-23T08:31:12;96120.44;;;-8.88;81.01
73103;BME280;61294;65.988;29.172;2023-03-23T08:33:39;96096.38;;;-8.96;80.49
73103;BME280;61294;65.988;29.172;2023-03-23T08:36:06;96110.13;;;-8.91;79.54
73103;BME280;61294;65.988;29.172;2023-03-23T08:38:33;96081.63;;;-9.07;79.23
73103;BME280;61294;65.988;29.172;2023-03-23T08:41:04;96111.88;;;-8.90;78.15
73103;BME280;61294;65.988;29.172;2023-03-23T08:43:31;96138.88;;;-8.97;77.14
73103;BME280;61294;65.988;29.172;2023-03-23T08:45:58;96102.94;;;-9.05;77.57
73103;BME280;61294;65.988;29.172;2023-03-23T08:48:24;96128.91;;;-8.89;77.38
73103;BME280;61294;65.988;29.172;2023-03-23T08:50:50;96118.34;;;-8.73;77.75
73103;BME280;61294;65.988;29.172;2023-03-23T08:53:18;96112.88;;;-8.56;77.76
73103;BME280;61294;65.988;29.172;2023-03-23T08:55:47;96113.09;;;-8.47;77.61
73103;BME280;61294;65.988;29.172;2023-03-23T08:58:14;96062.31;;;-8.98;76.41
73103;BME280;61294;65.988;29.172;2023-03-23T09:00:40;96120.22;;;-8.96;76.90
73103;BME280;61294;65.988;29.172;2023-03-23T09:03:06;96137.09;;;-8.99;77.28
73103;BME280;61294;65.988;29.172;2023-03-23T09:05:32;96136.16;;;-9.03;77.48
73103;BME280;61294;65.988;29.172;2023-03-23T09:07:58;96109.31;;;-9.19;77.20
73103;BME280;61294;65.988;29.172;2023-03-23T09:10:26;96083.25;;;-9.38;77.13
73103;BME280;61294;65.988;29.172;2023-03-23T09:12:53;96090.28;;;-9.30;77.01
73103;BME280;61294;65.988;29.172;2023-03-23T09:15:19;96126.47;;;-8.86;77.85
73103;BME280;61294;65.988;29.172;2023-03-23T09:17:48;96088.91;;;-8.90;76.60
73103;BME280;61294;65.988;29.172;2023-03-23T09:20:17;96124.34;;;-8.71;75.43
73103;BME280;61294;65.988;29.172;2023-03-23T09:22:47;96142.25;;;-8.39;75.16
73103;BME280;61294;65.988;29.172;2023-03-23T09:25:14;96134.47;;;-8.11;74.27
73103;BME280;61294;65.988;29.172;2023-03-23T09:27:41;96119.34;;;-8.04;73.15
73103;BME280;61294;65.988;29.172;2023-03-23T09:30:10;96114.25;;;-8.04;71.69
73103;BME280;61294;65.988;29.172;2023-03-23T09:32:37;96134.03;;;-7.63;71.62
73103;BME280;61294;65.988;29.172;2023-03-23T09:35:06;96136.78;;;-7.20;69.43
73103;BME280;61294;65.988;29.172;2023-03-23T09:37:38;96136.81;;;-7.19;69.13
73103;BME280;61294;65.988;29.172;2023-03-23T09:40:06;96149.09;;;-6.66;66.41
73103;BME280;61294;65.988;29.172;2023-03-23T09:45:41;96105.63;;;-6.21;64.90
73103;BME280;61294;65.988;29.172;2023-03-23T09:50:58;96138.06;;;-6.22;64.62
73103;BME280;61294;65.988;29.172;2023-03-23T09:53:41;96146.53;;;-6.26;63.75
73103;BME280;61294;65.988;29.172;2023-03-23T09:56:14;96143.94;;;-6.69;65.39
73103;BME280;61294;65.988;29.172;2023-03-23T09:58:56;96130.44;;;-7.00;66.57
73103;BME280;61294;65.988;29.172;2023-03-23T10:01:28;96140.75;;;-6.97;66.85
73103;BME280;61294;65.988;29.172;2023-03-23T10:06:47;96148.16;;;-7.77;69.03
73103;BME280;61294;65.988;29.172;2023-03-23T10:09:16;96150.16;;;-7.66;68.00
73103;BME280;61294;65.988;29.172;2023-03-23T10:15:20;96144.47;;;-7.89;70.27
73103;BME280;61294;65.988;29.172;2023-03-23T10:25:29;96149.09;;;-5.33;62.79
73103;BME280;61294;65.988;29.172;2023-03-23T10:28:09;96128.09;;;-5.09;61.99
73103;BME280;61294;65.988;29.172;2023-03-23T10:30:49;96139.56;;;-4.87;61.79
73103;BME280;61294;65.988;29.172;2023-03-23T10:33:29;96161.53;;;-5.04;61.91
73103;BME280;61294;65.988;29.172;2023-03-23T10:39:02;96153.56;;;-5.21;60.78
73103;BME280;61294;65.988;29.172;2023-03-23T10:41:32;96142.72;;;-5.03;59.00
73103;BME280;61294;65.988;29.172;2023-03-23T10:43:58;96167.09;;;-4.13;59.52
73103;BME280;61294;65.988;29.172;2023-03-23T10:55:14;96169.69;;;-4.75;56.94
73103;BME280;61294;65.988;29.172;2023-03-23T10:57:45;96172.38;;;-4.03;56.29
73103;BME280;61294;65.988;29.172;2023-03-23T11:02:46;96181.59;;;-4.20;54.32
73103;BME280;61294;65.988;29.172;2023-03-23T11:05:23;96176.25;;;-4.36;56.03
73103;BME280;61294;65.988;29.172;2023-03-23T11:07:55;96179.75;;;-4.90;56.28
73103;BME280;61294;65.988;29.172;2023-03-23T11:10:24;96194.75;;;-5.13;57.47
73103;BME280;61294;65.988;29.172;2023-03-23T11:12:51;96168.06;;;-5.23;56.65
73103;BME280;61294;65.988;29.172;2023-03-23T11:15:37;96186.31;;;-5.57;57.07
73103;BME280;61294;65.988;29.172;2023-03-23T11:18:26;96191.75;;;-5.40;57.53
73103;BME280;61294;65.988;29.172;2023-03-23T11:20:57;96191.91;;;-5.29;57.77
73103;BME280;61294;65.988;29.172;2023-03-23T11:23:27;96169.03;;;-5.67;57.18
73103;BME280;61294;65.988;29.172;2023-03-23T11:26:10;96181.88;;;-5.65;57.05
73103;BME280;61294;65.988;29.172;2023-03-23T11:28:51;96192.41;;;-5.51;57.88
73103;BME280;61294;65.988;29.172;2023-03-23T11:31:24;96196.72;;;-5.47;56.72
73103;BME280;61294;65.988;29.172;2023-03-23T11:33:57;96206.13;;;-5.48;57.17
73103;BME280;61294;65.988;29.172;2023-03-23T11:36:39;96190.72;;;-5.49;57.70
73103;BME280;61294;65.988;29.172;2023-03-23T11:39:27;96178.72;;;-5.98;56.99
73103;BME280;61294;65.988;29.172;2023-03-23T11:41:56;96183.84;;;-5.95;57.72
73103;BME280;61294;65.988;29.172;2023-03-23T11:44:23;96209.47;;;-5.52;56.50
73103;BME280;61294;65.988;29.172;2023-03-23T11:52:24;96206.88;;;-5.53;57.18
73103;BME280;61294;65.988;29.172;2023-03-23T11:55:00;96213.16;;;-5.38;56.53
73103;BME280;61294;65.988;29.172;2023-03-23T11:57:30;96207.88;;;-5.45;54.90
73103;BME280;61294;65.988;29.172;2023-03-23T11:59:56;96211.53;;;-5.78;56.24
73103;BME280;61294;65.988;29.172;2023-03-23T12:02:37;96202.34;;;-5.68;56.89
73103;BME280;61294;65.988;29.172;2023-03-23T12:05:34;96217.50;;;-5.79;56.67
73103;BME280;61294;65.988;29.172;2023-03-23T12:08:25;96224.56;;;-5.67;57.74
73103;BME280;61294;65.988;29.172;2023-03-23T12:13:54;96207.97;;;-5.85;56.10
73103;BME280;61294;65.988;29.172;2023-03-23T12:22:23;96211.22;;;-6.36;56.78
73103;BME280;61294;65.988;29.172;2023-03-23T12:27:55;96210.53;;;-6.29;56.39
73103;BME280;61294;65.988;29.172;2023-03-23T12:36:20;96213.41;;;-6.14;56.50
73103;BME280;61294;65.988;29.172;2023-03-23T12:39:11;96231.09;;;-6.26;55.39
73103;BME280;61294;65.988;29.172;2023-03-23T12:41:59;96213.28;;;-6.60;55.62
73103;BME280;61294;65.988;29.172;2023-03-23T12:44:35;96230.94;;;-6.34;56.51
73103;BME280;61294;65.988;29.172;2023-03-23T12:49:45;96224.13;;;-6.32;56.36
73103;BME280;61294;65.988;29.172;2023-03-23T12:52:19;96243.59;;;-6.40;56.96
73103;BME280;61294;65.988;29.172;2023-03-23T12:58:06;96249.47;;;-6.44;57.33
73103;BME280;61294;65.988;29.172;2023-03-23T13:03:46;96241.53;;;-6.56;55.73
73103;BME280;61294;65.988;29.172;2023-03-23T13:06:27;96261.78;;;-6.66;55.50
73103;BME280;61294;65.988;29.172;2023-03-23T13:09:01;96221.66;;;-6.67;56.64
73103;BME280;61294;65.988;29.172;2023-03-23T13:11:39;96261.44;;;-6.43;55.37
73103;BME280;61294;65.988;29.172;2023-03-23T13:17:48;96256.56;;;-6.70;55.86
73103;BME280;61294;65.988;29.172;2023-03-23T13:20:34;96259.84;;;-6.76;55.98
73103;BME280;61294;65.988;29.172;2023-03-23T13:25:56;96244.66;;;-7.03;56.10
73103;BME280;61294;65.988;29.172;2023-03-23T13:28:34;96250.00;;;-6.94;55.62
73103;BME280;61294;65.988;29.172;2023-03-23T13:31:14;96249.66;;;-6.73;55.58
73103;BME280;61294;65.988;29.172;2023-03-23T13:33:50;96259.19;;;-6.67;55.40
73103;BME280;61294;65.988;29.172;2023-03-23T13:36:25;96231.53;;;-6.82;54.69
73103;BME280;61294;65.988;29.172;2023-03-23T13:38:52;96225.31;;;-6.92;55.19
73103;BME280;61294;65.988;29.172;2023-03-23T13:41:19;96266.88;;;-6.67;55.92
73103;BME280;61294;65.988;29.172;2023-03-23T13:43:47;96258.22;;;-6.72;54.71
73103;BME280;61294;65.988;29.172;2023-03-23T13:46:25;96256.69;;;-6.64;55.00
73103;BME280;61294;65.988;29.172;2023-03-23T13:49:17;96231.41;;;-6.87;54.68
73103;BME280;61294;65.988;29.172;2023-03-23T14:02:20;96288.88;;;-7.09;54.10
73103;BME280;61294;65.988;29.172;2023-03-23T14:04:42;96270.06;;;-6.76;54.33
73103;BME280;61294;65.988;29.172;2023-03-23T14:07:16;96280.41;;;-6.71;53.10
73103;BME280;61294;65.988;29.172;2023-03-23T14:09:44;96249.25;;;-7.25;52.50
73103;BME280;61294;65.988;29.172;2023-03-23T14:12:20;96280.53;;;-7.02;52.84
73103;BME280;61294;65.988;29.172;2023-03-23T14:14:54;96286.03;;;-6.86;53.38
73103;BME280;61294;65.988;29.172;2023-03-23T14:17:29;96292.53;;;-6.99;53.00
73103;BME280;61294;65.988;29.172;2023-03-23T14:19:57;96295.22;;;-6.95;52.54
73103;BME280;61294;65.988;29.172;2023-03-23T14:22:27;96294.06;;;-7.06;52.87
73103;BME280;61294;65.988;29.172;2023-03-23T14:25:08;96243.84;;;-7.68;53.31
73103;BME280;61294;65.988;29.172;2023-03-23T14:27:35;96293.19;;;-7.40;53.20
73103;BME280;61294;65.988;29.172;2023-03-23T14:30:04;96304.53;;;-7.30;53.82
73103;BME280;61294;65.988;29.172;2023-03-23T14:32:32;96305.81;;;-7.13;54.39
73103;BME280;61294;65.988;29.172;2023-03-23T14:35:04;96295.28;;;-7.25;53.61
73103;BME280;61294;65.988;29.172;2023-03-23T14:37:31;96254.31;;;-7.58;53.74
73103;BME280;61294;65.988;29.172;2023-03-23T14:39:58;96306.47;;;-7.21;54.55
73103;BME280;61294;65.988;29.172;2023-03-23T14:42:29;96311.56;;;-7.53;53.39
73103;BME280;61294;65.988;29.172;2023-03-23T14:44:57;96311.50;;;-7.56;52.96
73103;BME280;61294;65.988;29.172;2023-03-23T14:47:36;96312.34;;;-7.56;52.88